Time;durP1;ratioP1;P1;durP2;ratioP2;P2;SDS_P1;SDS_P2;PMS_P1;PMS_P2;Temp;Humidity;BMP_temperature;BMP_pressure;BME280_temperature;BME280_humidity;BME280_pressure;Samples;Min_cycle;Max_cycle;Signal;HPM_P1;HPM_P2
2022/02/28 00:01:01;;;;;;;6.10;2.90;;;4.40;99.90;;;;;;5093779;28;20409;-82
2022/02/28 00:03:27;;;;;;;5.13;3.80;;;4.40;99.90;;;;;;5075513;28;20232;-82
2022/02/28 00:05:53;;;;;;;3.97;2.63;;;4.50;99.90;;;;;;5093516;28;20496;-82
2022/02/28 00:08:18;;;;;;;7.77;4.23;;;4.40;99.90;;;;;;5075257;28;20720;-83
2022/02/28 00:10:44;;;;;;;6.93;4.73;;;4.40;99.90;;;;;;5093467;28;20555;-82
2022/02/28 00:13:10;;;;;;;5.33;4.47;;;4.40;99.90;;;;;;5093333;28;20224;-82
2022/02/28 00:15:36;;;;;;;6.00;4.00;;;4.40;99.90;;;;;;5093399;28;20721;-82
2022/02/28 00:18:02;;;;;;;5.27;3.63;;;4.40;99.90;;;;;;5092953;28;20500;-82
2022/02/28 00:20:28;;;;;;;6.83;4.10;;;4.30;99.90;;;;;;5093294;28;20185;-82
2022/02/28 00:22:53;;;;;;;6.03;3.53;;;4.30;99.90;;;;;;5093105;28;20451;-82
2022/02/28 00:25:19;;;;;;;6.73;3.67;;;4.30;99.90;;;;;;5092882;28;20178;-82
2022/02/28 00:27:45;;;;;;;4.60;3.20;;;4.30;99.90;;;;;;5093030;28;20190;-82
2022/02/28 00:30:12;;;;;;;6.03;3.10;;;4.30;99.90;;;;;;5074814;28;20209;-82
2022/02/28 00:32:38;;;;;;;6.97;3.47;;;4.30;99.90;;;;;;5074655;28;20423;-82
2022/02/28 00:35:06;;;;;;;5.73;3.13;;;4.20;99.90;;;;;;5093052;28;20431;-82
2022/02/28 00:37:32;;;;;;;5.87;3.80;;;4.20;99.90;;;;;;5092712;28;20937;-82
2022/02/28 00:39:58;;;;;;;7.60;3.73;;;4.30;99.90;;;;;;5074826;28;20412;-82
2022/02/28 00:42:24;;;;;;;5.70;3.90;;;4.30;99.90;;;;;;5092781;28;20408;-82
2022/02/28 00:44:49;;;;;;;4.87;3.60;;;4.20;99.90;;;;;;5092706;28;20425;-82
2022/02/28 00:47:15;;;;;;;4.17;2.80;;;4.20;99.90;;;;;;5092475;28;20234;-82
2022/02/28 00:49:41;;;;;;;6.57;3.50;;;4.20;99.90;;;;;;5092620;28;20413;-82
2022/02/28 00:52:06;;;;;;;6.80;4.10;;;4.20;99.90;;;;;;5074715;28;20179;-82
2022/02/28 00:54:32;;;;;;;5.40;3.23;;;4.10;99.90;;;;;;5074483;28;20180;-82
2022/02/28 00:56:58;;;;;;;5.23;3.53;;;4.10;99.90;;;;;;5092358;28;20214;-82
2022/02/28 00:59:23;;;;;;;5.20;3.23;;;4.10;99.90;;;;;;5092628;28;20548;-83
2022/02/28 01:01:49;;;;;;;6.07;3.33;;;4.20;99.90;;;;;;5092702;28;20557;-82
2022/02/28 01:04:15;;;;;;;6.67;3.67;;;4.10;99.90;;;;;;5074247;28;20178;-82
2022/02/28 01:06:41;;;;;;;6.33;4.07;;;4.10;99.90;;;;;;5073896;28;20649;-82
2022/02/28 01:09:09;;;;;;;6.30;3.70;;;4.10;99.90;;;;;;5092423;28;20450;-82
2022/02/28 01:11:35;;;;;;;5.70;3.63;;;4.10;99.90;;;;;;5092192;28;20219;-82
2022/02/28 01:14:01;;;;;;;5.30;3.50;;;4.10;99.90;;;;;;5092312;28;20420;-82
2022/02/28 01:16:26;;;;;;;5.53;3.60;;;4.00;99.90;;;;;;5073475;28;20195;-82
2022/02/28 01:18:52;;;;;;;4.87;3.17;;;4.00;99.90;;;;;;5074184;28;20446;-82
2022/02/28 01:21:18;;;;;;;6.50;4.00;;;4.00;99.90;;;;;;5074154;28;20183;-82
2022/02/28 01:23:44;;;;;;;5.50;3.30;;;3.90;99.90;;;;;;5092328;28;20185;-82
2022/02/28 01:26:10;;;;;;;5.97;3.20;;;3.90;99.90;;;;;;5091847;28;20386;-82
2022/02/28 01:28:36;;;;;;;4.87;3.87;;;3.90;99.90;;;;;;5091983;28;20498;-82
2022/02/28 01:31:02;;;;;;;5.73;3.13;;;3.80;99.90;;;;;;5091992;28;20464;-82
2022/02/28 01:33:28;;;;;;;6.87;3.73;;;3.80;99.90;;;;;;5074027;28;20186;-82
2022/02/28 01:35:54;;;;;;;6.17;3.80;;;3.70;99.90;;;;;;5073493;28;20424;-82
2022/02/28 01:38:19;;;;;;;6.17;3.27;;;3.70;99.90;;;;;;5091857;28;20182;-82
2022/02/28 01:40:45;;;;;;;5.23;3.40;;;3.60;99.90;;;;;;5074021;28;20663;-82
2022/02/28 01:43:10;;;;;;;8.50;3.73;;;3.70;99.90;;;;;;5091957;28;20198;-83
2022/02/28 01:45:36;;;;;;;7.20;3.37;;;3.60;99.90;;;;;;5091928;28;20308;-82
2022/02/28 01:48:02;;;;;;;5.87;3.60;;;3.60;99.90;;;;;;5091598;28;20190;-82
2022/02/28 01:50:28;;;;;;;5.77;3.73;;;3.60;99.90;;;;;;5092006;28;20201;-82
2022/02/28 01:52:54;;;;;;;5.50;3.60;;;3.60;99.90;;;;;;5091961;28;20416;-82
2022/02/28 01:55:22;;;;;;;4.70;3.60;;;3.50;99.90;;;;;;5073838;28;20720;-82
2022/02/28 01:57:49;;;;;;;8.13;3.90;;;3.50;99.90;;;;;;5073308;28;20213;-82
2022/02/28 02:00:19;;;;;;;5.23;3.67;;;3.50;99.90;;;;;;5091886;28;20412;-82
2022/02/28 02:02:45;;;;;;;6.23;3.70;;;3.50;99.90;;;;;;5073673;28;20420;-83
2022/02/28 02:05:11;;;;;;;6.07;4.30;;;3.50;99.90;;;;;;5091750;28;20922;-82
2022/02/28 02:07:37;;;;;;;9.67;3.47;;;3.50;99.90;;;;;;5091471;28;20436;-82
2022/02/28 02:10:05;;;;;;;6.20;4.13;;;3.50;99.90;;;;;;5091734;28;20508;-82
2022/02/28 02:12:31;;;;;;;5.97;3.70;;;3.50;99.90;;;;;;5073585;28;20191;-82
2022/02/28 02:14:58;;;;;;;6.23;4.20;;;3.40;99.90;;;;;;5091719;28;20782;-82
2022/02/28 02:17:24;;;;;;;6.50;4.10;;;3.40;99.90;;;;;;5091288;28;20869;-82
2022/02/28 02:19:53;;;;;;;5.87;3.27;;;3.40;99.90;;;;;;5073483;28;20499;-82
2022/02/28 02:22:21;;;;;;;5.00;3.23;;;3.40;99.90;;;;;;5091762;28;20174;-82
2022/02/28 02:24:48;;;;;;;5.90;3.57;;;3.30;99.90;;;;;;5073478;28;20455;-82
2022/02/28 02:27:14;;;;;;;6.27;4.23;;;3.30;99.90;;;;;;5091173;28;20461;-82
2022/02/28 02:29:40;;;;;;;6.70;3.97;;;3.30;99.90;;;;;;5073338;28;20985;-82
2022/02/28 02:32:09;;;;;;;7.47;3.27;;;3.30;99.90;;;;;;5073575;28;20281;-82
2022/02/28 02:34:35;;;;;;;6.87;4.43;;;3.30;99.90;;;;;;5091571;28;20423;-82
2022/02/28 02:37:00;;;;;;;5.80;3.57;;;3.20;99.90;;;;;;5073057;28;20474;-82
2022/02/28 02:39:26;;;;;;;8.10;4.20;;;3.20;99.90;;;;;;5073432;28;20182;-82
2022/02/28 02:41:53;;;;;;;5.70;3.73;;;3.20;99.90;;;;;;5073137;28;20594;-82
2022/02/28 02:44:19;;;;;;;7.07;4.47;;;3.20;99.90;;;;;;5091531;28;20185;-82
2022/02/28 02:46:46;;;;;;;7.47;4.40;;;3.20;99.90;;;;;;5091636;28;20443;-82
2022/02/28 02:49:14;;;;;;;6.60;4.70;;;3.20;99.90;;;;;;5095109;28;20174;-82
2022/02/28 02:51:40;;;;;;;5.40;3.43;;;3.20;99.90;;;;;;5076703;28;20466;-82
2022/02/28 02:54:06;;;;;;;5.80;4.37;;;3.20;99.90;;;;;;5095454;28;20453;-82
2022/02/28 02:56:32;;;;;;;6.23;3.87;;;3.20;99.90;;;;;;5094559;28;20950;-82
2022/02/28 02:58:57;;;;;;;5.40;3.70;;;3.20;99.90;;;;;;5076962;28;20190;-82
2022/02/28 03:01:23;;;;;;;5.70;3.67;;;3.20;99.90;;;;;;5095112;28;20178;-82
2022/02/28 03:03:48;;;;;;;5.47;3.43;;;3.20;99.90;;;;;;5076882;28;20182;-82
2022/02/28 03:06:14;;;;;;;5.73;4.20;;;3.20;99.90;;;;;;5094831;28;20200;-82
2022/02/28 03:08:39;;;;;;;8.40;4.20;;;3.20;99.90;;;;;;5094939;28;20547;-82
2022/02/28 03:11:05;;;;;;;8.47;4.10;;;3.20;99.90;;;;;;5094837;28;20672;-82
2022/02/28 03:13:31;;;;;;;7.80;4.60;;;3.20;99.90;;;;;;5094534;28;20214;-82
2022/02/28 03:15:56;;;;;;;6.37;3.67;;;3.20;99.90;;;;;;5094560;28;20180;-82
2022/02/28 03:18:22;;;;;;;8.70;4.27;;;3.20;99.90;;;;;;5076498;28;20174;-82
2022/02/28 03:20:47;;;;;;;6.33;3.13;;;3.10;99.90;;;;;;5076623;28;20628;-82
2022/02/28 03:23:13;;;;;;;5.57;3.70;;;3.10;99.90;;;;;;5094795;28;20189;-82
2022/02/28 03:25:39;;;;;;;8.53;4.63;;;3.10;99.90;;;;;;5076550;28;20276;-83
2022/02/28 03:28:05;;;;;;;5.03;3.50;;;3.10;99.90;;;;;;5076256;28;20298;-82
2022/02/28 03:30:30;;;;;;;6.87;4.10;;;3.20;99.90;;;;;;5076340;28;20217;-82
2022/02/28 03:32:56;;;;;;;6.80;4.40;;;3.10;99.90;;;;;;5094460;28;20413;-83
2022/02/28 03:35:22;;;;;;;7.17;3.93;;;3.10;99.90;;;;;;5094469;28;20186;-83
2022/02/28 03:37:48;;;;;;;6.63;3.70;;;3.10;99.90;;;;;;5075836;28;20576;-82
2022/02/28 03:40:14;;;;;;;7.30;4.70;;;3.10;99.90;;;;;;5094271;28;20503;-82
2022/02/28 03:42:40;;;;;;;5.20;3.57;;;3.10;99.90;;;;;;5094405;28;20186;-82
2022/02/28 03:45:06;;;;;;;6.80;4.00;;;3.10;99.90;;;;;;5094153;28;20279;-83
2022/02/28 03:47:32;;;;;;;6.27;3.83;;;3.10;99.90;;;;;;5093857;28;20440;-82
2022/02/28 03:49:57;;;;;;;9.00;4.40;;;3.10;99.90;;;;;;5094086;28;20458;-82
2022/02/28 03:52:23;;;;;;;5.50;4.00;;;3.10;99.90;;;;;;5076013;28;20260;-82
2022/02/28 03:54:48;;;;;;;6.20;3.87;;;3.00;99.90;;;;;;5075750;28;20178;-82
2022/02/28 03:57:14;;;;;;;6.10;3.67;;;3.00;99.90;;;;;;5093506;28;20200;-82
2022/02/28 03:59:39;;;;;;;7.20;4.30;;;3.00;99.90;;;;;;5075082;28;20173;-82
2022/02/28 04:02:05;;;;;;;8.97;3.90;;;3.00;99.90;;;;;;5093856;28;20169;-82
2022/02/28 04:04:31;;;;;;;6.43;4.10;;;3.00;99.90;;;;;;5075679;28;20176;-82
2022/02/28 04:06:57;;;;;;;7.87;3.80;;;2.90;99.90;;;;;;5093373;28;20617;-82
2022/02/28 04:09:23;;;;;;;6.30;4.00;;;2.90;99.90;;;;;;5093940;28;20199;-82
2022/02/28 04:11:49;;;;;;;7.50;4.00;;;2.90;99.90;;;;;;5075360;28;20564;-82
2022/02/28 04:14:15;;;;;;;6.63;4.17;;;2.80;99.90;;;;;;5075361;28;20173;-82
2022/02/28 04:16:41;;;;;;;6.57;4.43;;;2.80;99.90;;;;;;5074654;28;20203;-82
2022/02/28 04:19:07;;;;;;;8.00;4.43;;;2.70;99.90;;;;;;5093388;28;20861;-82
2022/02/28 04:21:32;;;;;;;7.40;4.83;;;2.70;99.90;;;;;;5093202;28;20176;-82
2022/02/28 04:23:58;;;;;;;6.20;4.10;;;2.60;99.90;;;;;;5093315;28;20207;-82
2022/02/28 04:26:23;;;;;;;8.70;4.43;;;2.70;99.90;;;;;;5074581;28;20227;-82
2022/02/28 04:28:49;;;;;;;6.70;4.50;;;2.60;99.90;;;;;;5074907;28;20187;-81
2022/02/28 04:31:14;;;;;;;8.20;5.13;;;2.50;99.90;;;;;;5092967;28;20210;-82
2022/02/28 04:33:41;;;;;;;7.40;4.60;;;2.50;99.90;;;;;;5074874;28;20560;-82
2022/02/28 04:36:07;;;;;;;7.70;4.80;;;2.40;99.90;;;;;;5074528;28;20206;-83
2022/02/28 04:38:33;;;;;;;6.40;4.60;;;2.40;99.90;;;;;;5093124;28;20510;-82
2022/02/28 04:40:59;;;;;;;5.93;4.20;;;2.40;99.90;;;;;;5074608;28;20517;-82
2022/02/28 04:43:24;;;;;;;8.80;4.93;;;2.40;99.90;;;;;;5074747;28;20711;-82
2022/02/28 04:45:50;;;;;;;6.33;4.70;;;2.40;99.90;;;;;;5092652;28;20582;-82
2022/02/28 04:48:15;;;;;;;6.80;4.77;;;2.30;99.90;;;;;;5092551;28;20548;-82
2022/02/28 04:50:41;;;;;;;7.83;5.60;;;2.30;99.90;;;;;;5074508;28;20256;-82
2022/02/28 04:53:06;;;;;;;8.60;5.30;;;2.30;99.90;;;;;;5074413;28;20270;-82
2022/02/28 04:55:32;;;;;;;6.53;5.00;;;2.30;99.90;;;;;;5074138;28;20599;-82
2022/02/28 04:57:58;;;;;;;8.03;5.07;;;2.20;99.90;;;;;;5092104;28;20294;-82
2022/02/28 05:00:23;;;;;;;8.27;4.90;;;2.20;99.90;;;;;;5074466;28;20639;-82
2022/02/28 05:02:49;;;;;;;7.40;4.27;;;2.20;99.90;;;;;;5074280;28;20189;-82
2022/02/28 05:05:14;;;;;;;6.50;4.90;;;2.20;99.90;;;;;;5074309;28;20176;-82
2022/02/28 05:07:40;;;;;;;8.63;5.77;;;2.20;99.90;;;;;;5073826;28;20562;-82
2022/02/28 05:10:06;;;;;;;9.90;4.63;;;2.10;99.90;;;;;;5091641;28;20202;-82
2022/02/28 05:12:32;;;;;;;7.20;4.83;;;2.10;99.90;;;;;;5074027;28;20331;-82
2022/02/28 05:14:57;;;;;;;6.33;4.30;;;2.10;99.90;;;;;;5092667;28;20452;-82
2022/02/28 05:17:23;;;;;;;9.43;5.00;;;2.10;99.90;;;;;;5074026;28;20812;-82
2022/02/28 05:19:48;;;;;;;7.03;4.43;;;2.10;99.90;;;;;;5092306;28;20181;-82
2022/02/28 05:22:14;;;;;;;6.83;5.07;;;2.10;99.90;;;;;;5074407;28;20305;-83
2022/02/28 05:24:40;;;;;;;6.77;3.90;;;2.10;99.90;;;;;;5074218;28;20267;-82
2022/02/28 05:27:08;;;;;;;6.63;4.90;;;2.20;99.90;;;;;;5073792;28;20199;-82
2022/02/28 05:29:35;;;;;;;9.20;4.90;;;2.20;99.90;;;;;;5092202;28;20645;-82
2022/02/28 05:32:01;;;;;;;10.10;5.10;;;2.20;99.90;;;;;;5074032;28;20477;-82
2022/02/28 05:34:26;;;;;;;7.73;4.77;;;2.20;99.90;;;;;;5074073;28;20426;-82
2022/02/28 05:36:52;;;;;;;6.57;4.73;;;2.20;99.90;;;;;;5073799;28;20201;-82
2022/02/28 05:39:17;;;;;;;6.87;4.70;;;2.20;99.90;;;;;;5092216;28;20825;-82
2022/02/28 05:41:43;;;;;;;7.77;4.07;;;2.30;99.90;;;;;;5092154;28;20669;-83
2022/02/28 05:44:08;;;;;;;8.47;4.77;;;2.30;99.90;;;;;;5074254;28;20708;-82
2022/02/28 05:46:34;;;;;;;7.03;4.60;;;2.30;99.90;;;;;;5091666;28;20219;-82
2022/02/28 05:49:00;;;;;;;6.03;4.47;;;2.30;99.90;;;;;;5074169;28;20191;-83
2022/02/28 05:51:25;;;;;;;8.10;5.50;;;2.30;99.90;;;;;;5073773;28;20206;-82
2022/02/28 05:53:52;;;;;;;10.37;5.27;;;2.30;99.90;;;;;;5074096;28;20177;-82
2022/02/28 05:56:18;;;;;;;7.77;5.30;;;2.40;99.90;;;;;;5091831;28;20186;-82
2022/02/28 05:58:44;;;;;;;7.10;5.83;;;2.40;99.90;;;;;;5120121;22;20496;-70
2022/02/28 06:01:10;;;;;;;7.50;4.83;;;2.30;99.90;;;;;;5089779;28;20189;-69
2022/02/28 06:03:35;;;;;;;8.30;4.70;;;2.30;99.90;;;;;;5090338;28;20559;-70
2022/02/28 06:06:03;;;;;;;7.00;4.97;;;2.40;99.90;;;;;;5089953;28;20667;-70
2022/02/28 06:08:28;;;;;;;7.70;4.10;;;2.30;99.90;;;;;;5090209;28;20187;-69
2022/02/28 06:10:54;;;;;;;8.20;4.90;;;2.30;99.90;;;;;;5089948;28;21118;-69
2022/02/28 06:13:20;;;;;;;8.57;4.60;;;2.30;99.90;;;;;;5090263;28;20177;-70
2022/02/28 06:15:46;;;;;;;10.90;6.00;;;2.30;99.90;;;;;;5090152;28;20204;-69
2022/02/28 06:18:11;;;;;;;7.10;5.10;;;2.30;99.90;;;;;;5082667;28;20725;-70
2022/02/28 06:20:39;;;;;;;8.07;4.43;;;2.30;99.90;;;;;;5087272;28;20184;-68
2022/02/28 06:23:05;;;;;;;9.70;4.90;;;2.30;99.90;;;;;;5092383;28;20182;-70
2022/02/28 06:25:31;;;;;;;7.70;4.63;;;2.40;99.90;;;;;;5110496;28;20452;-69
2022/02/28 06:27:57;;;;;;;6.67;4.10;;;2.30;99.90;;;;;;5110562;28;20423;-69
2022/02/28 06:30:23;;;;;;;7.70;5.80;;;2.30;99.90;;;;;;5110683;28;20539;-70
2022/02/28 06:32:50;;;;;;;7.87;4.73;;;2.30;99.90;;;;;;5110546;28;20268;-69
2022/02/28 06:35:16;;;;;;;6.97;4.47;;;2.30;99.90;;;;;;5110309;28;20766;-69
2022/02/28 06:37:42;;;;;;;5.60;4.37;;;2.30;99.90;;;;;;5110347;28;20433;-70
2022/02/28 06:40:08;;;;;;;7.93;4.63;;;2.30;99.90;;;;;;5110234;28;21081;-69
2022/02/28 06:42:34;;;;;;;9.67;6.03;;;2.30;99.90;;;;;;5110621;28;20507;-70
2022/02/28 06:45:00;;;;;;;8.30;4.37;;;2.40;99.90;;;;;;5110385;28;20505;-69
2022/02/28 06:47:26;;;;;;;7.40;4.80;;;2.40;99.90;;;;;;5109935;28;20619;-69
2022/02/28 06:49:51;;;;;;;8.60;4.37;;;2.40;99.90;;;;;;5110009;28;20226;-69
2022/02/28 06:52:17;;;;;;;7.37;5.10;;;2.40;99.90;;;;;;5110521;28;20225;-69
2022/02/28 06:54:43;;;;;;;8.07;4.87;;;2.40;99.90;;;;;;5110203;28;20191;-69
2022/02/28 06:57:10;;;;;;;9.17;5.50;;;2.50;99.90;;;;;;5109979;28;20442;-69
2022/02/28 06:59:36;;;;;;;10.00;5.53;;;2.50;99.90;;;;;;5109956;28;20193;-69
2022/02/28 07:02:02;;;;;;;6.03;4.10;;;2.50;99.90;;;;;;5109838;28;20425;-69
2022/02/28 07:04:28;;;;;;;8.07;4.83;;;2.60;99.90;;;;;;5110088;28;20501;-69
2022/02/28 07:06:54;;;;;;;7.80;4.80;;;2.60;99.90;;;;;;5108546;28;20541;-70
2022/02/28 07:09:24;;;;;;;7.87;5.40;;;2.60;99.90;;;;;;5110496;28;20276;-69
2022/02/28 07:11:50;;;;;;;9.00;5.30;;;2.70;99.90;;;;;;5109552;28;20476;-69
2022/02/28 07:14:15;;;;;;;7.47;5.00;;;2.70;99.90;;;;;;5110076;28;20514;-69
2022/02/28 07:16:41;;;;;;;8.97;5.17;;;2.70;99.90;;;;;;5109273;28;20197;-69
2022/02/28 07:19:07;;;;;;;8.73;5.97;;;2.80;99.90;;;;;;5109909;28;20238;-69
2022/02/28 07:21:33;;;;;;;9.90;5.30;;;2.90;99.90;;;;;;5109608;28;20642;-69
2022/02/28 07:24:01;;;;;;;11.33;5.20;;;2.90;99.90;;;;;;5109431;28;20186;-69
2022/02/28 07:26:29;;;;;;;9.70;5.10;;;2.90;99.90;;;;;;5109351;28;20551;-70
2022/02/28 07:28:56;;;;;;;8.53;5.03;;;2.90;99.90;;;;;;5109664;28;20510;-68
2022/02/28 07:31:21;;;;;;;6.67;5.07;;;3.00;99.90;;;;;;5109705;28;20928;-68
2022/02/28 07:33:47;;;;;;;8.90;4.73;;;3.00;99.90;;;;;;5108388;28;20447;-69
2022/02/28 07:36:14;;;;;;;9.50;4.80;;;3.10;99.90;;;;;;5108738;28;20511;-69
2022/02/28 07:38:40;;;;;;;8.50;5.70;;;3.20;99.90;;;;;;5109148;28;20639;-69
2022/02/28 07:41:07;;;;;;;10.80;5.97;;;3.20;99.90;;;;;;5109563;28;20806;-68
2022/02/28 07:43:32;;;;;;;7.50;5.80;;;3.30;99.90;;;;;;5109488;28;20914;-68
2022/02/28 07:45:58;;;;;;;8.43;6.00;;;3.40;99.90;;;;;;5109108;28;20452;-68
2022/02/28 07:48:24;;;;;;;11.60;6.37;;;3.40;99.90;;;;;;5108744;28;20186;-69
2022/02/28 07:50:50;;;;;;;8.40;5.20;;;3.40;99.90;;;;;;5108826;28;20464;-69
2022/02/28 07:53:16;;;;;;;8.20;5.00;;;3.50;99.90;;;;;;5109323;28;20455;-69
2022/02/28 07:55:41;;;;;;;7.97;5.63;;;3.50;99.90;;;;;;5109302;28;20198;-69
2022/02/28 07:58:07;;;;;;;10.83;5.50;;;3.60;99.90;;;;;;5110127;28;20209;-69
2022/02/28 08:00:33;;;;;;;7.10;5.30;;;3.70;99.90;;;;;;5108429;28;20205;-70
2022/02/28 08:02:59;;;;;;;9.00;5.40;;;3.80;99.90;;;;;;5109159;28;20181;-70
2022/02/28 08:05:25;;;;;;;9.60;5.40;;;3.90;99.90;;;;;;5108491;28;20186;-70
2022/02/28 08:07:51;;;;;;;8.23;5.70;;;4.00;99.90;;;;;;5108665;28;20485;-69
2022/02/28 08:10:17;;;;;;;7.90;5.80;;;4.10;99.90;;;;;;5108788;28;20460;-70
2022/02/28 08:12:43;;;;;;;12.70;6.03;;;4.20;99.90;;;;;;5108301;28;20491;-70
2022/02/28 08:15:10;;;;;;;9.77;5.67;;;4.30;99.90;;;;;;5108619;28;20417;-69
2022/02/28 08:17:36;;;;;;;13.47;5.37;;;4.40;99.90;;;;;;5108244;28;20191;-69
2022/02/28 08:20:02;;;;;;;10.20;6.43;;;4.50;99.90;;;;;;5107997;28;20424;-69
2022/02/28 08:22:28;;;;;;;9.80;5.80;;;4.60;99.90;;;;;;5108024;28;20174;-69
2022/02/28 08:24:54;;;;;;;9.40;5.90;;;4.70;99.90;;;;;;5108242;28;20793;-69
2022/02/28 08:27:20;;;;;;;9.83;5.00;;;4.80;99.90;;;;;;5108088;28;20207;-69
2022/02/28 08:29:46;;;;;;;10.73;6.07;;;4.90;99.90;;;;;;5108306;28;20798;-69
2022/02/28 08:32:11;;;;;;;8.83;5.30;;;5.00;99.90;;;;;;5108058;28;20677;-70
2022/02/28 08:34:37;;;;;;;7.53;5.13;;;5.10;99.90;;;;;;5107657;28;20843;-69
2022/02/28 08:37:03;;;;;;;8.00;5.93;;;5.20;99.90;;;;;;5107557;28;20195;-69
2022/02/28 08:39:29;;;;;;;7.27;5.60;;;5.30;99.90;;;;;;5108203;28;20227;-69
2022/02/28 08:41:54;;;;;;;9.20;5.83;;;5.40;99.90;;;;;;5108163;28;20859;-69
2022/02/28 08:44:20;;;;;;;10.87;5.67;;;5.50;99.90;;;;;;5107919;28;20218;-69
2022/02/28 08:46:46;;;;;;;10.50;5.87;;;5.60;99.90;;;;;;5107759;28;20204;-70
2022/02/28 08:49:12;;;;;;;9.17;5.90;;;5.70;99.90;;;;;;5107634;28;20690;-69
2022/02/28 08:51:38;;;;;;;8.20;5.90;;;5.80;99.90;;;;;;5107876;28;20490;-69
2022/02/28 08:54:04;;;;;;;8.63;5.60;;;5.90;99.90;;;;;;5108052;28;20579;-70
2022/02/28 08:56:30;;;;;;;10.90;6.80;;;5.80;99.90;;;;;;5107393;28;20499;-68
2022/02/28 08:58:56;;;;;;;10.13;6.20;;;5.80;99.90;;;;;;5107876;28;20190;-69
2022/02/28 09:01:22;;;;;;;8.70;6.00;;;5.90;99.90;;;;;;5107425;28;20188;-69
2022/02/28 09:03:47;;;;;;;8.37;5.00;;;5.90;99.90;;;;;;5107876;28;20188;-69
2022/02/28 09:06:13;;;;;;;8.10;5.70;;;6.00;99.90;;;;;;5091856;28;20445;-69
2022/02/28 09:08:39;;;;;;;7.73;5.50;;;6.10;99.90;;;;;;5107758;28;20549;-69
2022/02/28 09:11:04;;;;;;;8.37;6.07;;;6.10;99.90;;;;;;5107519;28;20253;-69
2022/02/28 09:13:30;;;;;;;8.40;6.53;;;6.20;99.90;;;;;;5095627;28;20628;-69
2022/02/28 09:15:57;;;;;;;8.50;5.87;;;6.20;99.90;;;;;;5090785;28;20285;-68
2022/02/28 09:18:23;;;;;;;9.77;5.70;;;6.30;99.90;;;;;;5090093;28;20174;-69
2022/02/28 09:20:49;;;;;;;8.80;5.60;;;6.30;99.90;;;;;;5091102;28;21019;-70
2022/02/28 09:23:14;;;;;;;7.60;5.50;;;6.40;99.90;;;;;;5090764;28;20197;-68
2022/02/28 09:25:43;;;;;;;10.20;6.60;;;6.50;99.90;;;;;;5090538;28;20205;-69
2022/02/28 09:28:09;;;;;;;10.17;5.83;;;6.60;99.90;;;;;;5090544;28;20233;-70
2022/02/28 09:30:35;;;;;;;8.20;5.90;;;6.70;99.90;;;;;;5090734;28;20487;-69
2022/02/28 09:33:01;;;;;;;8.30;5.73;;;6.80;99.90;;;;;;5090621;28;20178;-69
2022/02/28 09:35:27;;;;;;;12.30;6.87;;;6.90;99.90;;;;;;5086097;28;20470;-69
2022/02/28 09:37:54;;;;;;;8.57;5.70;;;6.90;99.90;;;;;;5089989;28;20519;-68
2022/02/28 09:40:26;;;;;;;8.63;6.20;;;6.90;99.90;;;;;;5107275;28;20509;-69
2022/02/28 09:42:58;;;;;;;9.10;5.83;;;7.00;99.90;;;;;;5100483;28;20813;-69
2022/02/28 09:45:25;;;;;;;8.17;6.13;;;7.10;99.90;;;;;;5089843;28;20424;-71
2022/02/28 09:47:51;;;;;;;8.97;5.47;;;7.20;99.90;;;;;;5090005;28;20422;-69
2022/02/28 09:50:18;;;;;;;10.97;6.60;;;7.20;99.90;;;;;;5089967;28;20492;-68
2022/02/28 09:52:43;;;;;;;10.13;7.50;;;7.20;99.90;;;;;;5090466;28;20420;-69
2022/02/28 09:55:10;;;;;;;8.93;6.20;;;7.30;99.90;;;;;;5090222;28;20418;-69
2022/02/28 09:57:36;;;;;;;10.80;6.47;;;7.40;99.90;;;;;;5092489;28;20439;-69
2022/02/28 10:00:03;;;;;;;12.20;7.10;;;7.40;99.90;;;;;;5094392;28;20530;-69
2022/02/28 10:02:29;;;;;;;8.57;6.70;;;7.50;99.90;;;;;;5094438;28;20416;-69
2022/02/28 10:04:56;;;;;;;9.40;6.40;;;7.60;99.90;;;;;;5094449;28;20435;-69
2022/02/28 10:07:25;;;;;;;9.80;6.33;;;7.80;99.90;;;;;;5094274;28;20194;-70
2022/02/28 10:10:08;;;;;;;9.17;6.00;;;7.90;99.90;;;;;;5094412;28;20463;-71
2022/02/28 10:12:34;;;;;;;11.30;6.97;;;8.00;99.90;;;;;;5094587;28;20886;-69
2022/02/28 10:15:09;;;;;;;10.30;6.90;;;8.00;99.90;;;;;;5094670;28;20460;-69
2022/02/28 10:17:55;;;;;;;9.43;6.83;;;8.20;99.90;;;;;;5093956;28;20194;-70
2022/02/28 10:20:36;;;;;;;12.53;6.60;;;8.40;99.90;;;;;;5094219;28;20847;-70
2022/02/28 10:23:10;;;;;;;9.00;6.23;;;8.50;99.90;;;;;;5094226;28;20749;-70
2022/02/28 10:25:41;;;;;;;8.10;5.70;;;8.70;99.90;;;;;;5093963;28;20931;-69
2022/02/28 10:28:11;;;;;;;9.80;6.10;;;8.80;99.90;;;;;;5093888;28;20852;-69
2022/02/28 10:30:38;;;;;;;7.83;6.10;;;8.90;99.90;;;;;;5093820;28;20460;-70
2022/02/28 10:33:09;;;;;;;10.50;6.83;;;9.10;99.90;;;;;;5093948;28;20785;-69
2022/02/28 10:36:10;;;;;;;9.23;6.03;;;9.30;99.90;;;;;;5093999;28;20427;-70
2022/02/28 10:38:36;;;;;;;9.00;5.93;;;9.90;99.90;;;;;;5094000;28;20842;-69
2022/02/28 10:41:08;;;;;;;10.83;7.17;;;12.50;96.90;;;;;;5094016;28;20862;-69
2022/02/28 10:43:36;;;;;;;7.70;5.83;;;14.90;84.20;;;;;;5093818;28;20424;-68
2022/02/28 10:46:42;;;;;;;8.70;6.00;;;18.00;60.10;;;;;;5093408;28;20809;-66
2022/02/28 10:49:17;;;;;;;9.33;6.87;;;19.70;54.30;;;;;;5090852;28;20424;-66
2022/02/28 10:51:44;;;;;;;10.77;6.90;;;20.60;42.80;;;;;;5093477;28;20548;-67
2022/02/28 10:54:18;;;;;;;8.97;6.30;;;20.50;41.30;;;;;;5093460;28;20451;-66
2022/02/28 10:56:45;;;;;;;8.47;6.67;;;21.40;39.50;;;;;;5093090;28;20427;-67
2022/02/28 10:59:12;;;;;;;12.50;8.70;;;22.30;38.70;;;;;;5093331;28;20939;-66
2022/02/28 11:01:41;;;;;;;9.53;7.50;;;23.20;36.80;;;;;;5093277;28;20428;-66
2022/02/28 11:04:10;;;;;;;10.57;6.70;;;23.40;34.60;;;;;;5093422;28;20759;-66
2022/02/28 11:06:36;;;;;;;9.60;7.40;;;23.80;34.20;;;;;;5092694;28;20444;-66
2022/02/28 11:09:04;;;;;;;9.87;7.10;;;23.60;32.40;;;;;;5093591;28;20423;-66
2022/02/28 11:11:31;;;;;;;7.60;6.80;;;24.20;33.40;;;;;;5093010;28;20471;-66
2022/02/28 11:13:57;;;;;;;9.20;6.47;;;24.30;31.20;;;;;;5093139;28;20941;-67
2022/02/28 11:16:23;;;;;;;10.17;7.27;;;24.30;31.20;;;;;;5092700;28;20432;-66
2022/02/28 11:18:49;;;;;;;9.07;6.97;;;23.80;31.30;;;;;;5092995;28;20485;-66
2022/02/28 11:21:15;;;;;;;8.60;7.63;;;24.20;30.50;;;;;;5092858;28;20428;-66
2022/02/28 11:23:43;;;;;;;9.13;7.33;;;23.80;29.90;;;;;;5093044;28;20551;-66
2022/02/28 11:26:10;;;;;;;9.43;7.10;;;23.40;30.00;;;;;;5092785;28;20525;-66
2022/02/28 11:28:37;;;;;;;8.73;6.63;;;24.10;30.80;;;;;;5092787;28;20835;-67
2022/02/28 11:31:05;;;;;;;9.13;7.17;;;23.80;29.90;;;;;;5092652;28;20979;-67
2022/02/28 11:33:32;;;;;;;8.13;6.17;;;24.00;30.10;;;;;;5092797;28;20834;-66
2022/02/28 11:35:59;;;;;;;8.40;6.70;;;24.20;31.40;;;;;;5092608;28;20464;-66
2022/02/28 11:38:25;;;;;;;8.37;6.93;;;23.80;30.40;;;;;;5092492;28;20420;-66
2022/02/28 11:40:54;;;;;;;9.77;6.70;;;23.60;30.70;;;;;;5092624;28;20797;-66
2022/02/28 11:43:25;;;;;;;9.00;6.80;;;23.80;31.50;;;;;;5092662;28;20505;-66
2022/02/28 11:46:05;;;;;;;9.13;6.60;;;23.90;30.10;;;;;;5092344;28;20445;-66
2022/02/28 11:48:33;;;;;;;9.60;6.97;;;24.00;30.60;;;;;;5092312;28;20412;-66
2022/02/28 11:51:00;;;;;;;9.03;6.80;;;22.70;29.50;;;;;;5092404;28;20824;-66
2022/02/28 11:53:49;;;;;;;10.67;6.17;;;22.30;31.20;;;;;;5092510;28;20765;-66
2022/02/28 11:56:18;;;;;;;11.33;6.40;;;24.20;32.00;;;;;;5092241;28;20458;-67
2022/02/28 11:59:02;;;;;;;9.27;6.97;;;25.50;29.90;;;;;;5091961;28;20494;-66
2022/02/28 12:01:30;;;;;;;10.10;6.77;;;25.80;29.40;;;;;;5092164;28;20428;-66
2022/02/28 12:04:09;;;;;;;7.83;6.27;;;25.90;29.30;;;;;;5092314;28;20462;-67
2022/02/28 12:06:54;;;;;;;9.07;6.47;;;25.40;28.40;;;;;;5091710;28;20444;-66
2022/02/28 12:09:38;;;;;;;9.87;7.23;;;25.40;29.10;;;;;;5092044;28;20420;-66
2022/02/28 12:12:27;;;;;;;8.30;6.47;;;25.50;28.90;;;;;;5091941;28;20608;-67
2022/02/28 12:15:03;;;;;;;8.83;6.17;;;25.70;30.10;;;;;;5092027;28;20417;-67
2022/02/28 12:17:42;;;;;;;8.53;7.00;;;25.10;28.50;;;;;;5091389;28;20499;-66
2022/02/28 12:20:28;;;;;;;10.97;6.70;;;25.40;28.90;;;;;;5091411;28;20412;-66
2022/02/28 12:25:37;;;;;;;8.23;6.73;;;26.10;27.90;;;;;;5092987;28;20396;-67
2022/02/28 12:28:17;;;;;;;9.67;6.90;;;24.60;27.80;;;;;;5091457;28;20441;-67
2022/02/28 12:30:51;;;;;;;10.90;6.83;;;24.60;28.80;;;;;;5091620;28;20466;-66
2022/02/28 12:33:20;;;;;;;8.87;6.27;;;24.10;28.40;;;;;;5091626;28;20459;-67
2022/02/28 12:36:08;;;;;;;10.03;7.07;;;23.60;28.70;;;;;;5091475;28;20445;-66
2022/02/28 12:38:40;;;;;;;12.60;7.23;;;21.30;29.00;;;;;;5091643;28;20691;-67
2022/02/28 12:41:12;;;;;;;9.60;6.47;;;20.10;30.00;;;;;;5092005;28;20525;-66
2022/02/28 12:43:40;;;;;;;8.80;6.73;;;19.30;30.50;;;;;;5091992;28;20481;-67
2022/02/28 12:46:09;;;;;;;9.60;6.40;;;21.10;32.10;;;;;;5091439;28;20527;-66
2022/02/28 12:48:37;;;;;;;10.33;8.03;;;23.10;30.90;;;;;;5091163;28;20473;-66
2022/02/28 12:51:04;;;;;;;10.67;7.07;;;23.70;29.00;;;;;;5091300;28;20467;-67
2022/02/28 12:53:33;;;;;;;9.00;6.80;;;24.10;29.20;;;;;;5091173;28;20413;-66
2022/02/28 12:56:04;;;;;;;8.70;6.60;;;25.70;28.80;;;;;;5091093;28;20440;-67